createdAt,value
2023-05-25T00:01:49.564Z,100288.72
2023-05-25T00:04:19.589Z,100289.38
2023-05-25T00:06:48.020Z,100292.22
2023-05-25T00:09:16.554Z,100290.84
2023-05-25T00:11:44.857Z,100283.59
2023-05-25T00:14:14.689Z,100285.63
2023-05-25T00:16:43.251Z,100280.16
2023-05-25T00:19:11.705Z,100280.09
2023-05-25T00:21:40.050Z,100281.53
2023-05-25T00:24:09.290Z,100277.28
2023-05-25T00:26:37.607Z,100276.28
2023-05-25T00:29:07.240Z,100275.03
2023-05-25T00:31:37.139Z,100277.28
2023-05-25T00:34:05.451Z,100274.09
2023-05-25T00:36:33.753Z,100276.63
2023-05-25T00:39:02.199Z,100281.22
2023-05-25T00:41:32.260Z,100288.81
2023-05-25T00:44:00.594Z,100277.72
2023-05-25T00:46:29.692Z,100282.66
2023-05-25T00:48:59.563Z,100283.78
2023-05-25T00:51:28.477Z,100273.94
2023-05-25T00:53:56.878Z,100281.81
2023-05-25T00:56:29.140Z,100277.03
2023-05-25T00:59:01.993Z,100276.78
2023-05-25T01:01:33.634Z,100274.91
2023-05-25T01:04:07.573Z,100276.63
2023-05-25T01:06:39.765Z,100273.94
2023-05-25T01:09:12.741Z,100269.50
2023-05-25T01:11:44.320Z,100265.84
2023-05-25T01:14:12.977Z,100275.03
2023-05-25T01:16:42.938Z,100272.66
2023-05-25T01:19:12.820Z,100269.84
2023-05-25T01:21:48.198Z,100263.00
2023-05-25T01:24:22.476Z,100264.00
2023-05-25T01:26:57.279Z,100264.97
2023-05-25T01:29:27.627Z,100272.28
2023-05-25T01:31:59.525Z,100264.81
2023-05-25T01:34:29.121Z,100256.84
2023-05-25T01:36:58.947Z,100258.59
2023-05-25T01:39:27.273Z,100267.34
2023-05-25T01:41:55.600Z,100269.78
2023-05-25T01:44:24.661Z,100264.97
2023-05-25T01:47:00.182Z,100257.94
2023-05-25T01:49:31.667Z,100264.56
2023-05-25T01:52:09.377Z,100264.72
2023-05-25T01:54:39.760Z,100257.41
2023-05-25T01:57:12.709Z,100262.16
2023-05-25T01:59:44.872Z,100261.50
2023-05-25T02:02:15.356Z,100262.44
2023-05-25T02:04:44.232Z,100265.06
2023-05-25T02:07:13.901Z,100265.50
2023-05-25T02:09:42.247Z,100264.84
2023-05-25T02:12:11.092Z,100263.75
2023-05-25T02:14:39.378Z,100269.72
2023-05-25T02:17:07.653Z,100266.69
2023-05-25T02:19:37.785Z,100264.31
2023-05-25T02:22:06.511Z,100264.47
2023-05-25T02:24:38.183Z,100265.47
2023-05-25T02:27:07.305Z,100265.13
2023-05-25T02:29:35.726Z,100270.69
2023-05-25T02:32:04.129Z,100281.69
2023-05-25T02:34:32.512Z,100289.13
2023-05-25T02:37:01.778Z,100295.66
2023-05-25T02:39:30.398Z,100294.41
2023-05-25T02:42:00.071Z,100297.81
2023-05-25T02:44:28.384Z,100301.94
2023-05-25T02:46:56.890Z,100298.03
2023-05-25T02:49:25.188Z,100300.50
2023-05-25T02:51:53.530Z,100304.22
2023-05-25T02:54:22.005Z,100314.53
2023-05-25T02:56:50.336Z,100311.38
2023-05-25T02:59:20.089Z,100313.25
2023-05-25T03:01:48.554Z,100316.38
2023-05-25T03:04:18.212Z,100320.75
2023-05-25T03:06:46.500Z,100306.69
2023-05-25T03:09:15.013Z,100302.00
2023-05-25T03:11:43.346Z,100305.28
2023-05-25T03:14:13.349Z,100306.84
2023-05-25T03:16:43.141Z,100300.75
2023-05-25T03:19:11.961Z,100300.31
2023-05-25T03:21:40.200Z,100299.84
2023-05-25T03:24:08.858Z,100302.78
2023-05-25T03:26:37.366Z,100307.28
2023-05-25T03:29:07.205Z,100307.09
2023-05-25T03:31:36.113Z,100309.47
2023-05-25T03:34:07.023Z,100308.25
2023-05-25T03:36:35.324Z,100311.06
2023-05-25T03:39:03.593Z,100308.56
2023-05-25T03:41:31.899Z,100320.28
2023-05-25T03:44:00.304Z,100314.94
2023-05-25T03:46:28.720Z,100314.56
2023-05-25T03:48:56.973Z,100310.53
2023-05-25T03:51:28.078Z,100314.47
2023-05-25T03:53:56.542Z,100311.06
2023-05-25T03:56:24.981Z,100318.03
2023-05-25T03:58:53.392Z,100305.63
2023-05-25T04:01:22.041Z,100314.97
2023-05-25T04:03:50.578Z,100310.09
2023-05-25T04:06:19.430Z,100319.63
2023-05-25T04:08:49.734Z,100317.63
2023-05-25T04:11:18.021Z,100308.53
2023-05-25T04:13:46.402Z,100309.75
2023-05-25T04:16:14.829Z,100307.31
2023-05-25T04:18:43.355Z,100308.75
2023-05-25T04:21:11.613Z,100308.72
2023-05-25T04:23:40.025Z,100306.78
2023-05-25T04:26:10.479Z,100314.06
2023-05-25T04:28:40.829Z,100318.78
2023-05-25T04:31:09.637Z,100313.44
2023-05-25T04:33:38.962Z,100317.78
2023-05-25T04:36:08.927Z,100322.81
2023-05-25T04:38:37.504Z,100318.75
2023-05-25T04:41:06.662Z,100329.31
2023-05-25T04:43:37.234Z,100327.00
2023-05-25T04:46:08.172Z,100334.69
2023-05-25T04:48:39.171Z,100337.13
2023-05-25T04:51:07.759Z,100333.72
2023-05-25T04:53:36.655Z,100330.91
2023-05-25T04:56:05.408Z,100335.19
2023-05-25T04:58:34.242Z,100331.97
2023-05-25T05:01:04.090Z,100339.13
2023-05-25T05:03:32.606Z,100340.94
2023-05-25T05:06:00.906Z,100352.19
2023-05-25T05:08:29.351Z,100344.09
2023-05-25T05:10:57.668Z,100345.25
2023-05-25T05:13:26.143Z,100351.72
2023-05-25T05:15:55.322Z,100351.06
2023-05-25T05:18:24.992Z,100358.63
2023-05-25T05:20:53.278Z,100353.59
2023-05-25T05:23:21.790Z,100351.38
2023-05-25T05:25:50.054Z,100358.47
2023-05-25T05:28:18.476Z,100349.13
2023-05-25T05:30:47.632Z,100353.31
2023-05-25T05:33:16.196Z,100350.09
2023-05-25T05:35:46.307Z,100363.97
2023-05-25T05:38:14.695Z,100357.38
2023-05-25T05:40:43.228Z,100368.25
2023-05-25T05:43:12.636Z,100357.13
2023-05-25T05:45:41.012Z,100363.81
2023-05-25T05:48:10.900Z,100364.84
2023-05-25T05:50:41.831Z,100369.59
2023-05-25T05:53:12.784Z,100372.38
2023-05-25T05:55:41.245Z,100367.69
2023-05-25T05:58:09.673Z,100368.66
2023-05-25T06:00:38.030Z,100377.09
2023-05-25T06:03:06.422Z,100378.88
2023-05-25T06:05:34.785Z,100376.03
2023-05-25T06:08:05.681Z,100378.84
2023-05-25T06:10:35.677Z,100374.31
2023-05-25T06:13:04.011Z,100376.25
2023-05-25T06:15:32.686Z,100383.59
2023-05-25T06:18:01.145Z,100389.72
2023-05-25T06:20:29.700Z,100389.41
2023-05-25T06:22:58.078Z,100380.78
2023-05-25T06:25:26.391Z,100388.72
2023-05-25T06:27:56.107Z,100389.41
2023-05-25T06:30:24.722Z,100393.47
2023-05-25T06:32:53.013Z,100396.69
2023-05-25T06:35:21.315Z,100395.44
2023-05-25T06:37:50.254Z,100395.25
2023-05-25T06:40:18.968Z,100399.91
2023-05-25T06:42:47.232Z,100401.63
2023-05-25T06:45:17.394Z,100406.72
2023-05-25T06:47:45.727Z,100408.38
2023-05-25T06:50:14.242Z,100410.72
2023-05-25T06:52:43.084Z,100394.50
2023-05-25T06:55:12.146Z,100409.81
2023-05-25T10:26:14.693Z,100393.72
2023-05-25T10:28:45.787Z,100381.38
2023-05-25T10:31:14.845Z,100383.88
2023-05-25T10:33:47.515Z,100377.59
2023-05-25T10:36:19.759Z,100374.28
2023-05-25T10:38:48.828Z,100370.22
2023-05-25T10:41:20.903Z,100372.75
2023-05-25T10:43:49.639Z,100377.38
2023-05-25T10:46:19.364Z,100368.97
2023-05-25T10:48:49.529Z,100368.88
2023-05-25T10:51:20.851Z,100365.75
2023-05-25T10:54:00.862Z,100366.28
2023-05-25T10:56:30.582Z,100365.38
2023-05-25T10:58:59.229Z,100367.00
2023-05-25T11:01:28.143Z,100353.78
2023-05-25T11:03:58.190Z,100355.97
2023-05-25T11:07:14.460Z,100361.34
2023-05-25T11:09:47.279Z,100360.19
2023-05-25T11:12:23.664Z,100353.81
2023-05-25T11:15:13.012Z,100366.00
2023-05-25T11:18:02.985Z,100358.38
2023-05-25T11:20:32.094Z,100363.41
2023-05-25T11:23:00.546Z,100357.56
2023-05-25T11:25:40.608Z,100340.88
2023-05-25T11:28:12.682Z,100354.28
2023-05-25T11:30:43.416Z,100345.03
2023-05-25T11:33:11.890Z,100349.09
2023-05-25T11:35:40.259Z,100330.91
2023-05-25T11:38:09.572Z,100339.38
2023-05-25T11:40:47.407Z,100336.94
2023-05-25T11:43:18.324Z,100338.28
2023-05-25T11:45:48.646Z,100340.41
2023-05-25T11:48:17.391Z,100330.56
2023-05-25T11:50:46.118Z,100321.56
2023-05-25T11:53:15.113Z,100329.53
2023-05-25T11:55:55.578Z,100334.84
2023-05-25T11:58:36.522Z,100315.97
2023-05-25T12:01:19.394Z,100318.75
2023-05-25T12:03:48.189Z,100313.72
2023-05-25T12:06:26.986Z,100324.75
2023-05-25T12:08:55.713Z,100325.53
2023-05-25T12:11:35.713Z,100325.97
2023-05-25T12:14:08.163Z,100325.34
2023-05-25T12:16:39.090Z,100324.28
2023-05-25T12:19:08.375Z,100319.97
2023-05-25T12:21:39.114Z,100330.91
2023-05-25T12:24:08.354Z,100330.94
2023-05-25T12:26:37.218Z,100335.63
2023-05-25T12:29:08.400Z,100334.88
2023-05-25T12:31:38.948Z,100331.25
2023-05-25T12:34:09.646Z,100337.88
2023-05-25T12:36:40.032Z,100345.69
2023-05-25T12:39:09.581Z,100344.09
2023-05-25T12:41:50.303Z,100343.34
2023-05-25T12:44:26.545Z,100342.97
2023-05-25T12:46:56.433Z,100354.72
2023-05-25T12:49:26.546Z,100354.50
2023-05-25T12:51:54.972Z,100361.44
2023-05-25T12:54:44.176Z,100368.69
2023-05-25T12:57:17.323Z,100375.81
2023-05-25T12:59:48.355Z,100372.09
2023-05-25T13:02:16.794Z,100370.88
2023-05-25T13:04:45.135Z,100380.97
2023-05-25T13:07:13.492Z,100379.53
2023-05-25T13:09:42.719Z,100382.00
2023-05-25T13:12:11.367Z,100368.47
2023-05-25T13:14:39.690Z,100374.44
2023-05-25T13:17:09.440Z,100369.81
2023-05-25T13:19:37.788Z,100377.63
2023-05-25T13:22:06.878Z,100361.63
2023-05-25T13:24:35.314Z,100361.97
2023-05-25T13:27:03.617Z,100358.81
2023-05-25T13:29:32.012Z,100355.19
2023-05-25T13:32:00.428Z,100341.19
2023-05-25T13:34:30.458Z,100343.91
2023-05-25T13:36:59.044Z,100336.22
2023-05-25T13:39:27.350Z,100329.22
2023-05-25T13:41:55.639Z,100334.34
2023-05-25T13:44:24.016Z,100314.44
2023-05-25T13:46:52.362Z,100310.13
2023-05-25T13:49:20.792Z,100305.78
2023-05-25T13:51:50.588Z,100303.50
2023-05-25T13:54:18.881Z,100291.44
2023-05-25T13:56:47.266Z,100275.44
2023-05-25T13:59:15.708Z,100275.50
2023-05-25T14:01:44.061Z,100270.84
2023-05-25T14:04:15.005Z,100256.00
2023-05-25T14:06:43.338Z,100247.81
2023-05-25T14:09:13.634Z,100259.94
2023-05-25T14:11:42.073Z,100245.13
2023-05-25T14:14:23.134Z,100241.22
2023-05-25T14:16:55.585Z,100231.03
2023-05-25T14:19:24.069Z,100232.59
2023-05-25T14:22:11.106Z,100219.34
2023-05-25T14:24:41.393Z,100215.84
2023-05-25T14:27:09.878Z,100208.84
2023-05-25T14:29:38.279Z,100197.50
2023-05-25T14:32:06.843Z,100191.63
2023-05-25T14:34:35.151Z,100186.59
2023-05-25T14:37:03.446Z,100188.56
2023-05-25T14:39:31.817Z,100187.75
2023-05-25T14:42:02.590Z,100170.59
2023-05-25T14:44:30.962Z,100178.78
2023-05-25T14:46:59.393Z,100172.56
2023-05-25T14:49:27.896Z,100160.88
2023-05-25T14:51:56.203Z,100162.44
2023-05-25T14:54:24.505Z,100160.88
2023-05-25T14:56:52.957Z,100153.06
2023-05-25T14:59:27.329Z,100154.97
2023-05-25T15:01:55.749Z,100160.38
2023-05-25T15:04:26.524Z,100164.66
2023-05-25T15:06:54.920Z,100159.22
2023-05-25T15:09:23.331Z,100164.66
2023-05-25T15:11:51.756Z,100163.81
2023-05-25T15:14:20.107Z,100173.13
2023-05-25T15:16:49.835Z,100169.59
2023-05-25T15:19:18.215Z,100161.78
2023-05-25T15:21:46.612Z,100174.59
2023-05-25T15:24:16.839Z,100180.72
2023-05-25T15:26:45.273Z,100176.44
2023-05-25T15:29:13.519Z,100180.34
2023-05-25T15:31:41.862Z,100179.88
2023-05-25T15:34:12.095Z,100184.94
2023-05-25T15:36:40.375Z,100183.31
2023-05-25T15:39:12.860Z,100196.13
2023-05-25T15:41:41.140Z,100189.50
2023-05-25T15:44:12.689Z,100194.59
2023-05-25T15:46:41.593Z,100197.72
2023-05-25T15:49:12.132Z,100207.09
2023-05-25T15:51:42.006Z,100201.66
2023-05-25T15:54:13.497Z,100205.16
2023-05-25T15:56:42.810Z,100207.91
2023-05-25T15:59:12.592Z,100216.47
2023-05-25T16:01:41.255Z,100213.75
2023-05-25T16:04:09.703Z,100210.97
2023-05-25T16:06:39.479Z,100208.69
2023-05-25T16:09:07.798Z,100208.69
2023-05-25T16:11:36.062Z,100216.84
2023-05-25T16:14:04.306Z,100225.78
2023-05-25T16:16:32.863Z,100225.78
2023-05-25T16:19:01.375Z,100223.44
2023-05-25T16:21:29.750Z,100227.75
2023-05-25T16:23:59.569Z,100232.03
2023-05-25T16:26:27.812Z,100237.81
2023-05-25T16:28:56.317Z,100234.38
2023-05-25T16:31:24.678Z,100240.53
2023-05-25T16:33:52.964Z,100239.28
2023-05-25T16:36:21.242Z,100244.34
2023-05-25T16:38:49.497Z,100245.84
2023-05-25T16:41:19.154Z,100243.44
2023-05-25T16:43:47.539Z,100249.25
2023-05-25T16:46:16.086Z,100253.09
2023-05-25T16:48:44.417Z,100249.91
2023-05-25T16:51:15.348Z,100244.47
2023-05-25T16:53:44.049Z,100247.47
2023-05-25T16:56:12.321Z,100254.00
2023-05-25T16:58:42.157Z,100245.75
2023-05-25T17:01:11.544Z,100253.84
2023-05-25T17:03:40.172Z,100245.25
2023-05-25T17:06:09.414Z,100254.50
2023-05-25T17:08:37.687Z,100254.78
2023-05-25T17:11:06.085Z,100254.38
2023-05-25T17:13:34.462Z,100255.78
2023-05-25T17:16:04.198Z,100263.16
2023-05-25T17:18:32.536Z,100251.56
2023-05-25T17:21:01.946Z,100261.97
2023-05-25T17:23:30.227Z,100258.03
2023-05-25T17:25:58.620Z,100253.91
2023-05-25T17:28:28.912Z,100250.72
2023-05-25T17:30:58.986Z,100252.59
2023-05-25T17:33:28.747Z,100256.28
2023-05-25T17:35:57.072Z,100265.59
2023-05-25T17:38:26.139Z,100272.84
2023-05-25T17:40:54.433Z,100258.91
2023-05-25T17:43:22.796Z,100266.63
2023-05-25T17:45:51.167Z,100270.91
2023-05-25T17:48:19.495Z,100264.25
2023-05-25T17:50:49.166Z,100270.28
2023-05-25T17:53:17.448Z,100274.72
2023-05-25T17:55:46.150Z,100269.16
2023-05-25T17:58:14.675Z,100268.25
2023-05-25T18:00:42.950Z,100267.91
2023-05-25T18:03:11.506Z,100265.44
2023-05-25T18:05:39.904Z,100273.47
2023-05-25T18:08:09.658Z,100279.25
2023-05-25T18:10:37.957Z,100282.75
2023-05-25T18:13:06.261Z,100276.53
2023-05-25T18:15:34.752Z,100280.44
2023-05-25T18:18:03.874Z,100293.00
2023-05-25T18:20:32.337Z,100289.94
2023-05-25T18:23:00.697Z,100292.63
2023-05-25T18:25:30.505Z,100297.75
2023-05-25T18:27:58.961Z,100302.28
2023-05-25T18:30:27.424Z,100299.81
2023-05-25T18:33:53.483Z,100291.53
2023-05-25T18:36:21.915Z,100288.63
2023-05-25T18:38:50.324Z,100279.31
2023-05-25T18:41:21.406Z,100282.25
2023-05-25T18:43:50.220Z,100292.34
2023-05-25T18:46:18.758Z,100288.06
2023-05-25T18:48:48.277Z,100292.91
2023-05-25T18:51:17.401Z,100298.69
2023-05-25T18:53:46.071Z,100299.06
2023-05-25T18:56:14.405Z,100296.72
2023-05-25T18:58:44.342Z,100298.31
2023-05-25T19:01:12.811Z,100294.25
2023-05-25T19:03:41.388Z,100306.19
2023-05-25T19:06:10.049Z,100289.47
2023-05-25T19:08:38.411Z,100306.66
2023-05-25T19:11:06.837Z,100309.34
2023-05-25T19:13:35.254Z,100298.91
2023-05-25T19:16:13.096Z,100298.47
2023-05-25T19:18:41.469Z,100307.88
2023-05-25T19:21:10.511Z,100302.88
2023-05-25T19:23:38.872Z,100306.84
2023-05-25T19:26:07.220Z,100307.16
2023-05-25T19:28:35.557Z,100301.00
2023-05-25T19:31:05.954Z,100301.38
2023-05-25T19:33:34.334Z,100300.47
2023-05-25T19:36:02.678Z,100300.28
2023-05-25T19:38:40.234Z,100297.31
2023-05-25T19:41:09.888Z,100296.50
2023-05-25T19:43:39.803Z,100298.53
2023-05-25T19:46:10.144Z,100294.44
2023-05-25T19:48:40.151Z,100293.59
2023-05-25T19:51:08.620Z,100289.03
2023-05-25T19:53:36.968Z,100297.94
2023-05-25T19:56:06.674Z,100302.16
2023-05-25T19:58:35.402Z,100310.00
2023-05-25T20:01:03.906Z,100289.25
2023-05-25T20:03:34.059Z,100295.09
2023-05-25T20:06:02.685Z,100303.72
2023-05-25T20:08:31.114Z,100296.81
2023-05-25T20:10:59.522Z,100300.06
2023-05-25T20:13:27.841Z,100300.34
2023-05-25T20:15:56.266Z,100298.72
2023-05-25T20:18:25.142Z,100294.97
2023-05-25T20:20:54.866Z,100299.63
2023-05-25T20:23:23.142Z,100307.03
2023-05-25T20:25:51.451Z,100289.91
2023-05-25T20:28:19.997Z,100305.22
2023-05-25T20:30:48.521Z,100302.50
2023-05-25T20:33:17.162Z,100300.88
2023-05-25T20:35:45.762Z,100289.84
2023-05-25T20:38:15.694Z,100291.53
2023-05-25T20:40:44.128Z,100291.78
2023-05-25T20:43:12.393Z,100307.13
2023-05-25T20:45:41.451Z,100295.78
2023-05-25T20:48:12.250Z,100311.75
2023-05-25T20:50:40.687Z,100293.22
2023-05-25T20:53:22.963Z,100305.06
2023-05-25T20:55:51.392Z,100293.50
2023-05-25T20:58:19.794Z,100280.28
2023-05-25T21:00:49.893Z,100281.78
2023-05-25T21:03:18.431Z,100262.41
2023-05-25T21:05:47.037Z,100276.50
2023-05-25T21:08:17.123Z,100279.16
2023-05-25T21:10:45.562Z,100278.81
2023-05-25T21:13:14.463Z,100279.94
2023-05-25T21:15:42.904Z,100277.94
2023-05-25T21:18:12.998Z,100268.09
2023-05-25T21:20:41.696Z,100272.34
2023-05-25T21:23:10.082Z,100266.16
2023-05-25T21:25:39.906Z,100279.66
2023-05-25T21:28:09.317Z,100275.06
2023-05-25T21:30:37.783Z,100270.31
2023-05-25T21:33:06.277Z,100265.03
2023-05-25T21:35:34.899Z,100272.72
2023-05-25T21:38:03.670Z,100257.81
2023-05-25T21:40:32.074Z,100268.59
2023-05-25T21:43:01.954Z,100264.69
2023-05-25T21:45:30.213Z,100257.53
2023-05-25T21:47:58.862Z,100261.88
2023-05-25T21:50:27.326Z,100262.25
2023-05-25T21:52:55.925Z,100257.19
2023-05-25T21:55:24.576Z,100254.91
2023-05-25T21:57:52.984Z,100253.69
2023-05-25T22:00:23.627Z,100254.41
2023-05-25T22:02:52.134Z,100248.28
2023-05-25T22:05:20.696Z,100258.41
2023-05-25T22:07:48.990Z,100254.00
2023-05-25T22:10:17.531Z,100261.31
2023-05-25T22:12:45.900Z,100246.50
2023-05-25T22:15:14.520Z,100243.38
2023-05-25T22:17:44.340Z,100249.56
2023-05-25T22:20:13.618Z,100241.84
2023-05-25T22:22:42.485Z,100246.44
2023-05-25T22:25:11.292Z,100234.69
2023-05-25T22:27:39.928Z,100233.50
2023-05-25T22:30:09.455Z,100235.44
2023-05-25T22:32:37.863Z,100239.94
2023-05-25T22:35:09.059Z,100247.34
2023-05-25T22:37:37.434Z,100252.00
2023-05-25T22:40:07.007Z,100247.28
2023-05-25T22:42:35.460Z,100243.72
2023-05-25T22:45:03.872Z,100235.50
2023-05-25T22:47:32.176Z,100247.75
2023-05-25T22:50:00.536Z,100244.44
2023-05-25T22:52:30.327Z,100247.50
2023-05-25T22:54:59.061Z,100243.56
2023-05-25T22:57:27.397Z,100250.97
2023-05-25T22:59:56.517Z,100238.09
2023-05-25T23:02:24.960Z,100247.75
2023-05-25T23:04:54.251Z,100243.50
2023-05-25T23:07:23.165Z,100243.84
2023-05-25T23:09:53.147Z,100248.41
2023-05-25T23:12:21.786Z,100243.88
2023-05-25T23:14:52.073Z,100236.09
2023-05-25T23:17:20.404Z,100229.91
2023-05-25T23:19:50.222Z,100224.16
2023-05-25T23:22:18.694Z,100220.75
2023-05-25T23:24:49.141Z,100217.41
2023-05-25T23:27:19.049Z,100224.66
2023-05-25T23:29:47.361Z,100215.31
2023-05-25T23:32:15.836Z,100223.53
2023-05-25T23:34:44.226Z,100230.69
2023-05-25T23:37:12.656Z,100216.72
2023-05-25T23:39:41.049Z,100211.22
2023-05-25T23:42:10.269Z,100221.25
2023-05-25T23:44:40.101Z,100219.06
2023-05-25T23:47:08.745Z,100213.50
2023-05-25T23:49:37.096Z,100212.72
2023-05-25T23:52:07.326Z,100212.56
2023-05-25T23:54:36.268Z,100225.81
2023-05-25T23:57:04.919Z,100224.94
2023-05-25T23:59:33.316Z,100233.75
